Impacts METAR Board
IDs:

KLAX - Los Angeles Intl, CA, US

Updated at: 2000 UTC 15 Jun 2019
Potential Impact None Slight Moderate High
Time 15/08Z 15/09Z 15/10Z 15/11Z 15/12Z 15/13Z 15/14Z 15/15Z 15/16Z 15/17Z 15/18Z 15/19Z 15/20Z
Temp63 63 64 64 64 64 64 65 66 67 68 68 68
Dewpt57 57 57 57 57 55 56 56 56 56 56 57 58
Altim29.93 29.92 29.91 29.92 29.92 29.93 29.94 29.95 29.96 29.96 29.96 29.96 29.95
VIS10 10 10 10 10 10 10 10 10 10 10 10 10
CIG14 15 21 16 15 16 20 21 22 24 24 23 24
CoverOVCOVCOVCOVCOVCOVCOVCOVCOVCOVCOVCOVCOVC
FltCatMVFRMVFRMVFRMVFRMVFRMVFRMVFRMVFRMVFRMVFRMVFRMVFRMVFR
WX--------------------------
WDir29034035022020001501700150160190250
WSpd4 3 3 4 3 3 4 3 4 5 6 4 9
WGst-- -- -- -- -- -- -- -- -- -- -- -- --
Raw hourly METARs
KLAX 150753Z 29004KT 10SM OVC014 17/14 A2993 RMK AO2 SLP134 T01720139 402110167
KLAX 150853Z 34003KT 10SM OVC015 17/14 A2992 RMK AO2 SLP131 T01720139 56005
KLAX 150953Z 35003KT 10SM SCT016 OVC021 18/14 A2991 RMK AO2 SLP127 OVC V BKN T01780139
KLAX 151053Z 22004KT 10SM BKN016 OVC022 18/14 A2992 RMK AO2 SLP129 T01780139
KLAX 151153Z 20003KT 10SM BKN015 OVC023 18/14 A2992 RMK AO2 SLP130 T01780139 10178 20172 55001
KLAX 151253Z VRB03KT 10SM BKN016 OVC023 18/13 A2993 RMK AO2 SLP134 T01780128
KLAX 151353Z 15004KT 10SM FEW016 OVC020 18/13 A2994 RMK AO2 SLP137 T01780133
KLAX 151453Z 17003KT 10SM FEW016 OVC021 18/13 A2995 RMK AO2 SLP141 T01830133 53012
KLAX 151553Z VRB04KT 10SM FEW016 OVC022 19/13 A2996 RMK AO2 SLP142 T01890133
KLAX 151653Z 15005KT 10SM OVC024 19/13 A2996 RMK AO2 SLP142 T01940133
KLAX 151753Z 16006KT 10SM OVC024 20/13 A2996 RMK AO2 SLP142 T02000133 10206 20178 50001
KLAX 151853Z 19004KT 10SM OVC023 20/14 A2996 RMK AO2 SLP142 T02000139
KLAX 151953Z 25009KT 10SM FEW019 OVC024 20/14 A2995 RMK AO2 SLP141 T02000144



Page loaded:  20:45 UTC  |   01:45 PM Pacific  |   02:45 PM Mountain  |   03:45 PM Central  |   04:45 PM Eastern

 

ADVISORIES

FORECASTS

FORECASTS

OBSERVATIONS

USER TOOLS

ABOUT US